< Typhoon 196118 1961 Season Typhoon 196120 >
Typhoon 196119 (OLGA)
General InformationTrack Information on Google Maps || Disaster Info.ResourceGoogle EarthGE AnimationAtom FeedGeoJSON
Detalied Best Track (Time Zone = UTC)
Year Month Day Hour Lat. Long. Pressure (hPa) Wind (kt) Class Image Chart
1961 9 4 06 17.5 125.5 1006 0 2 -- Chart
1961 9 4 12 17.5 126.0 1006 0 2 -- Chart
1961 9 4 18 17.0 126.0 1006 0 2 -- Chart
1961 9 5 00 17.0 126.5 1008 0 2 -- Chart
1961 9 5 06 17.5 126.6 1006 0 2 -- Chart
1961 9 5 12 17.7 126.7 1008 0 2 -- Chart
1961 9 5 18 18.0 127.0 1007 0 2 -- Chart
1961 9 6 00 18.8 125.5 1007 0 2 -- Chart
1961 9 6 06 19.0 124.0 1006 0 2 -- Chart
1961 9 6 12 19.2 123.0 1004 0 2 -- Chart
1961 9 6 18 19.6 121.4 1003 0 2 -- Chart
1961 9 7 00 19.5 118.7 1002 0 2 -- Chart
1961 9 7 06 19.4 118.2 1002 0 2 -- Chart
1961 9 7 12 19.4 117.7 1002 0 2 -- Chart
1961 9 7 18 19.8 117.4 1002 0 2 -- Chart
1961 9 8 00 19.9 117.0 1000 0 2 -- Chart
1961 9 8 06 20.0 116.6 996 0 2 -- Chart
1961 9 8 12 20.2 116.2 996 0 2 -- Chart
1961 9 8 18 20.5 115.9 992 0 2 -- Chart
1961 9 9 00 20.8 115.6 992 0 9 -- Chart
1961 9 9 06 21.4 115.2 990 0 9 -- Chart
1961 9 9 12 21.9 114.7 985 0 9 -- Chart
1961 9 9 18 22.5 114.4 985 0 9 -- Chart
1961 9 10 00 23.4 114.0 992 0 9 -- Chart
1961 9 10 06 24.0 114.0 992 0 2 -- Chart
1961 9 10 12 24.7 113.5 998 0 2 -- Chart
1961 9 10 18 25.0 113.0 1002 0 2 -- Chart
1961 9 11 00 26.0 113.0 1004 0 2 -- Chart
1961 9 11 06 27.0 113.0 1004 0 2 -- Chart
Japan Meteorological Agency Best Track Data | Correction Date : 1989-06-01
< Typhoon 196118 1961 Season Typhoon 196120 >

Help